Time;durP1;ratioP1;P1;durP2;ratioP2;P2;SDS_P1;SDS_P2;PMS_P1;PMS_P2;Temp;Humidity;BMP_temperature;BMP_pressure;BME280_temperature;BME280_humidity;BME280_pressure;Samples;Min_cycle;Max_cycle;Signal;HPM_P1;HPM_P2
2021/05/20 00:01:38;;;;;;;19.65;8.38;;;;;;;;;;5033112;28;20394;-64
2021/05/20 00:04:04;;;;;;;18.63;8.45;;;;;;;;;;5032007;28;20033;-63
2021/05/20 00:06:31;;;;;;;19.05;8.38;;;;;;;;;;5032548;28;20429;-64
2021/05/20 00:08:57;;;;;;;18.02;7.68;;;;;;;;;;5031079;28;20036;-63
2021/05/20 00:11:23;;;;;;;20.05;8.73;;;;;;;;;;5031681;28;20389;-65
2021/05/20 00:13:49;;;;;;;19.42;8.35;;;;;;;;;;5030192;28;20450;-64
2021/05/20 00:16:15;;;;;;;19.40;8.40;;;;;;;;;;5030338;28;20040;-64
2021/05/20 00:18:41;;;;;;;19.85;8.85;;;;;;;;;;5030842;28;20041;-64
2021/05/20 00:21:07;;;;;;;20.58;8.45;;;;;;;;;;5031426;28;20033;-65
2021/05/20 00:23:33;;;;;;;21.30;9.48;;;;;;;;;;5031402;28;20030;-64
2021/05/20 00:25:59;;;;;;;20.83;9.48;;;;;;;;;;5030296;28;20107;-64
2021/05/20 00:28:25;;;;;;;21.08;10.05;;;;;;;;;;5031590;28;20017;-63
2021/05/20 00:30:51;;;;;;;21.60;8.80;;;;;;;;;;5029524;28;20486;-65
2021/05/20 00:33:17;;;;;;;20.05;9.23;;;;;;;;;;5031393;28;20030;-64
2021/05/20 00:35:43;;;;;;;20.17;8.77;;;;;;;;;;5031468;28;20109;-63
2021/05/20 00:38:09;;;;;;;19.38;9.38;;;;;;;;;;5031717;28;20044;-64
2021/05/20 00:40:35;;;;;;;22.38;10.15;;;;;;;;;;5029568;28;20116;-64
2021/05/20 00:43:01;;;;;;;20.58;10.05;;;;;;;;;;5031185;28;20072;-64
2021/05/20 00:45:27;;;;;;;20.00;10.00;;;;;;;;;;5031402;28;20068;-62
2021/05/20 00:47:53;;;;;;;20.30;9.57;;;;;;;;;;5030053;28;20025;-64
2021/05/20 00:50:19;;;;;;;21.45;10.00;;;;;;;;;;5030793;28;20083;-64
2021/05/20 00:52:45;;;;;;;20.40;9.88;;;;;;;;;;5031308;28;20022;-64
2021/05/20 00:55:13;;;;;;;19.92;9.57;;;;;;;;;;5029793;28;20392;-60
2021/05/20 00:57:40;;;;;;;20.65;9.52;;;;;;;;;;5031553;28;20440;-64
2021/05/20 01:00:10;;;;;;;20.10;9.65;;;;;;;;;;5030972;28;20074;-63
2021/05/20 01:02:37;;;;;;;19.23;8.90;;;;;;;;;;5031441;28;20508;-63
2021/05/20 01:05:07;;;;;;;20.42;9.80;;;;;;;;;;5030597;28;20033;-64
2021/05/20 01:07:33;;;;;;;20.83;8.70;;;;;;;;;;5035227;28;20509;-64
2021/05/20 01:09:59;;;;;;;20.45;9.52;;;;;;;;;;5033122;28;20477;-63
2021/05/20 01:12:25;;;;;;;25.20;10.70;;;;;;;;;;5035162;28;20021;-64
2021/05/20 01:14:51;;;;;;;21.75;10.50;;;;;;;;;;5035242;28;20026;-64
2021/05/20 01:17:17;;;;;;;24.38;10.65;;;;;;;;;;5034014;28;20393;-64
2021/05/20 01:19:44;;;;;;;23.48;10.15;;;;;;;;;;5033032;28;20024;-63
2021/05/20 01:22:11;;;;;;;22.10;10.13;;;;;;;;;;5034789;28;20088;-63
2021/05/20 01:24:38;;;;;;;23.35;10.52;;;;;;;;;;5034779;28;20103;-64
2021/05/20 01:27:05;;;;;;;21.88;10.18;;;;;;;;;;5035162;28;20029;-63
2021/05/20 01:29:31;;;;;;;23.52;11.02;;;;;;;;;;5034438;28;20030;-63
2021/05/20 01:31:58;;;;;;;22.40;11.07;;;;;;;;;;5034881;28;20095;-65
2021/05/20 01:34:24;;;;;;;23.13;10.88;;;;;;;;;;5035042;28;20482;-64
2021/05/20 01:36:50;;;;;;;24.95;11.07;;;;;;;;;;5034735;28;20025;-64
2021/05/20 01:39:16;;;;;;;22.63;11.65;;;;;;;;;;5032740;28;20053;-65
2021/05/20 01:41:42;;;;;;;21.15;10.23;;;;;;;;;;5034448;28;20028;-65
2021/05/20 01:44:08;;;;;;;23.05;11.23;;;;;;;;;;5034544;28;20026;-65
2021/05/20 01:46:34;;;;;;;23.73;11.38;;;;;;;;;;5034603;28;20026;-65
2021/05/20 01:49:00;;;;;;;24.50;13.02;;;;;;;;;;5034531;28;20027;-63
2021/05/20 01:51:26;;;;;;;21.83;10.57;;;;;;;;;;5033778;28;20116;-65
2021/05/20 01:53:56;;;;;;;20.48;10.05;;;;;;;;;;5034339;28;20022;-65
2021/05/20 01:56:22;;;;;;;23.88;10.90;;;;;;;;;;5034452;28;20032;-63
2021/05/20 01:58:48;;;;;;;23.23;11.77;;;;;;;;;;5033570;28;20062;-65
2021/05/20 02:01:15;;;;;;;22.95;11.40;;;;;;;;;;5034369;28;20036;-64
2021/05/20 02:03:41;;;;;;;21.60;11.18;;;;;;;;;;5034063;28;20033;-63
2021/05/20 02:06:08;;;;;;;22.75;10.98;;;;;;;;;;5032894;28;20048;-64
2021/05/20 02:08:35;;;;;;;23.42;11.85;;;;;;;;;;5034316;28;20100;-64
2021/05/20 02:11:01;;;;;;;27.58;13.07;;;;;;;;;;5032211;28;20119;-61
2021/05/20 02:13:27;;;;;;;23.67;11.98;;;;;;;;;;5034148;28;20029;-64
2021/05/20 02:15:53;;;;;;;23.70;13.07;;;;;;;;;;5033730;28;20302;-62
2021/05/20 02:18:19;;;;;;;25.45;12.13;;;;;;;;;;5033975;28;20029;-64
2021/05/20 02:20:45;;;;;;;23.45;11.30;;;;;;;;;;5033201;28;20076;-63
2021/05/20 02:23:12;;;;;;;24.77;12.05;;;;;;;;;;5033852;28;20110;-61
2021/05/20 02:25:38;;;;;;;22.42;11.55;;;;;;;;;;5033823;28;20492;-64
2021/05/20 02:28:04;;;;;;;23.80;11.95;;;;;;;;;;5033842;28;20362;-64
2021/05/20 02:30:30;;;;;;;23.48;12.85;;;;;;;;;;5033061;28;20022;-65
2021/05/20 02:32:56;;;;;;;24.90;12.15;;;;;;;;;;5033721;28;20416;-64
2021/05/20 02:35:22;;;;;;;23.02;12.55;;;;;;;;;;5033625;28;20025;-63
2021/05/20 02:37:48;;;;;;;22.52;12.93;;;;;;;;;;5033597;28;20036;-64
2021/05/20 02:40:14;;;;;;;25.73;13.20;;;;;;;;;;5032953;28;20038;-64
2021/05/20 02:42:41;;;;;;;26.15;14.00;;;;;;;;;;5032321;28;20021;-64
2021/05/20 02:45:09;;;;;;;24.05;13.30;;;;;;;;;;5033448;28;20037;-65
2021/05/20 02:47:35;;;;;;;27.13;13.70;;;;;;;;;;5033590;28;20049;-64
2021/05/20 02:50:02;;;;;;;27.85;15.70;;;;;;;;;;5032554;28;20040;-64
2021/05/20 02:52:29;;;;;;;27.20;14.23;;;;;;;;;;5033586;28;20024;-64
2021/05/20 02:54:55;;;;;;;28.92;15.48;;;;;;;;;;5033607;28;20041;-64
2021/05/20 02:57:21;;;;;;;29.73;15.50;;;;;;;;;;5031863;28;20489;-65
2021/05/20 02:59:47;;;;;;;29.02;15.32;;;;;;;;;;5032816;28;20100;-65
2021/05/20 03:02:13;;;;;;;30.73;16.75;;;;;;;;;;5033074;28;20026;-65
2021/05/20 03:04:39;;;;;;;27.15;16.13;;;;;;;;;;5032965;28;20397;-64
2021/05/20 03:07:06;;;;;;;28.90;16.90;;;;;;;;;;5031857;28;20025;-63
2021/05/20 03:09:32;;;;;;;31.15;16.67;;;;;;;;;;5032290;28;20056;-64
2021/05/20 03:11:59;;;;;;;28.02;16.77;;;;;;;;;;5033111;28;20079;-64
2021/05/20 03:14:25;;;;;;;30.08;16.65;;;;;;;;;;5032974;28;20105;-63
2021/05/20 03:16:51;;;;;;;29.33;17.48;;;;;;;;;;5032821;28;20033;-64
2021/05/20 03:19:18;;;;;;;31.02;15.98;;;;;;;;;;5032145;28;20052;-65
2021/05/20 03:21:44;;;;;;;31.58;17.15;;;;;;;;;;5032715;28;20115;-65
2021/05/20 03:24:10;;;;;;;30.73;16.25;;;;;;;;;;5032512;28;20061;-65
2021/05/20 03:26:36;;;;;;;29.77;16.58;;;;;;;;;;5032367;28;20032;-63
2021/05/20 03:29:02;;;;;;;27.55;16.02;;;;;;;;;;5030009;28;20108;-65
2021/05/20 03:31:30;;;;;;;30.70;16.42;;;;;;;;;;5032401;28;20025;-64
2021/05/20 03:33:56;;;;;;;29.92;16.80;;;;;;;;;;5032407;28;20394;-63
2021/05/20 03:36:21;;;;;;;31.58;17.83;;;;;;;;;;5032356;28;20030;-64
2021/05/20 03:38:47;;;;;;;29.73;16.50;;;;;;;;;;5030708;28;20511;-63
2021/05/20 03:41:13;;;;;;;33.40;18.33;;;;;;;;;;5031030;28;20030;-65
2021/05/20 03:43:40;;;;;;;38.17;17.55;;;;;;;;;;5032009;28;20026;-65
2021/05/20 03:46:06;;;;;;;34.13;17.05;;;;;;;;;;5032040;28;20083;-61
2021/05/20 03:48:32;;;;;;;33.88;17.30;;;;;;;;;;5032125;28;20028;-62
2021/05/20 03:50:59;;;;;;;35.10;15.07;;;;;;;;;;5031597;28;20021;-63
2021/05/20 03:53:29;;;;;;;35.20;16.92;;;;;;;;;;5030967;28;20605;-63
2021/05/20 03:55:56;;;;;;;38.25;16.13;;;;;;;;;;5032075;28;20102;-64
2021/05/20 03:58:22;;;;;;;31.35;15.10;;;;;;;;;;5031891;28;20501;-63
2021/05/20 04:00:48;;;;;;;31.67;15.88;;;;;;;;;;5030117;28;20029;-62
2021/05/20 04:03:26;;;;;;;32.13;16.92;;;;;;;;;;5030680;28;20440;-62
2021/05/20 04:06:03;;;;;;;32.15;16.90;;;;;;;;;;5031899;28;20100;-65
2021/05/20 04:08:29;;;;;;;33.70;15.60;;;;;;;;;;5030721;28;20021;-63
2021/05/20 04:10:55;;;;;;;36.05;16.30;;;;;;;;;;5031280;28;20025;-63
2021/05/20 04:13:30;;;;;;;32.70;15.43;;;;;;;;;;5031996;28;20033;-64
2021/05/20 04:15:56;;;;;;;29.08;16.48;;;;;;;;;;5031690;28;20104;-63
2021/05/20 04:18:23;;;;;;;33.63;17.15;;;;;;;;;;5031849;28;20393;-63
2021/05/20 04:20:49;;;;;;;36.53;18.05;;;;;;;;;;5031187;28;20540;-60
2021/05/20 04:23:15;;;;;;;31.95;18.40;;;;;;;;;;5031658;28;20033;-65
2021/05/20 04:25:42;;;;;;;29.88;17.27;;;;;;;;;;5031614;28;20032;-65
2021/05/20 04:28:08;;;;;;;31.88;18.65;;;;;;;;;;5030518;28;20025;-62
2021/05/20 04:30:34;;;;;;;30.63;16.75;;;;;;;;;;5031080;28;20021;-64
2021/05/20 04:33:00;;;;;;;30.55;17.65;;;;;;;;;;5031508;28;20536;-62
2021/05/20 04:35:26;;;;;;;30.38;16.05;;;;;;;;;;5031755;28;20025;-65
2021/05/20 04:37:52;;;;;;;27.17;15.35;;;;;;;;;;5031369;28;20397;-64
2021/05/20 04:40:18;;;;;;;28.70;15.93;;;;;;;;;;5033087;28;20108;-64
2021/05/20 04:42:44;;;;;;;27.80;14.75;;;;;;;;;;5035388;28;20025;-65
2021/05/20 04:45:10;;;;;;;32.33;16.67;;;;;;;;;;5035867;28;20017;-59
2021/05/20 04:47:36;;;;;;;32.40;14.50;;;;;;;;;;5035526;28;20049;-63
2021/05/20 04:50:02;;;;;;;28.63;15.07;;;;;;;;;;5034989;28;20056;-62
2021/05/20 04:52:28;;;;;;;30.98;14.73;;;;;;;;;;5035495;28;20026;-64
2021/05/20 04:54:54;;;;;;;29.10;14.57;;;;;;;;;;5035248;28;20397;-65
2021/05/20 04:57:20;;;;;;;31.45;17.30;;;;;;;;;;5035794;28;20083;-64
2021/05/20 04:59:46;;;;;;;26.73;15.50;;;;;;;;;;5034884;28;20029;-65
2021/05/20 05:02:12;;;;;;;26.75;13.93;;;;;;;;;;5033828;28;20021;-64
2021/05/20 05:04:38;;;;;;;27.17;14.23;;;;;;;;;;5034031;28;20071;-64
2021/05/20 05:07:04;;;;;;;36.45;14.65;;;;;;;;;;5033774;28;20032;-64
2021/05/20 05:09:30;;;;;;;66.00;17.10;;;;;;;;;;5034177;28;20100;-65
2021/05/20 05:11:56;;;;;;;38.67;16.00;;;;;;;;;;5035303;28;20021;-64
2021/05/20 05:14:22;;;;;;;42.28;17.55;;;;;;;;;;5034998;28;20228;-63
2021/05/20 05:16:48;;;;;;;39.45;16.02;;;;;;;;;;5033817;28;20117;-64
2021/05/20 05:19:14;;;;;;;48.75;16.70;;;;;;;;;;5032800;28;20018;-64
2021/05/20 05:21:40;;;;;;;44.70;16.33;;;;;;;;;;5035077;28;20025;-63
2021/05/20 05:24:06;;;;;;;42.03;16.92;;;;;;;;;;5033417;28;20477;-64
2021/05/20 05:26:32;;;;;;;38.85;16.40;;;;;;;;;;5035131;28;20030;-61
2021/05/20 05:28:58;;;;;;;47.53;17.70;;;;;;;;;;5032726;28;20947;-64
2021/05/20 05:31:26;;;;;;;31.90;16.95;;;;;;;;;;5033207;28;20029;-63
2021/05/20 05:33:52;;;;;;;35.25;16.45;;;;;;;;;;5034684;28;20489;-64
2021/05/20 05:36:18;;;;;;;38.42;16.70;;;;;;;;;;5033106;28;20059;-64
2021/05/20 05:38:44;;;;;;;47.50;17.25;;;;;;;;;;5033519;28;20474;-63
2021/05/20 05:41:10;;;;;;;42.85;17.92;;;;;;;;;;5034379;28;20041;-64
2021/05/20 05:43:36;;;;;;;34.90;17.85;;;;;;;;;;5033181;28;20038;-63
2021/05/20 05:46:02;;;;;;;39.22;17.48;;;;;;;;;;5034035;28;20029;-63
2021/05/20 05:48:28;;;;;;;33.03;17.08;;;;;;;;;;5032631;28;20026;-64
2021/05/20 05:50:56;;;;;;;32.05;17.10;;;;;;;;;;5032777;28;20032;-62
2021/05/20 05:53:23;;;;;;;48.72;18.88;;;;;;;;;;5034163;28;20022;-64
2021/05/20 05:55:49;;;;;;;41.95;17.23;;;;;;;;;;5034067;28;20478;-63
2021/05/20 05:58:15;;;;;;;37.38;17.23;;;;;;;;;;5034208;28;20040;-62
2021/05/20 06:00:41;;;;;;;36.85;16.73;;;;;;;;;;5033272;28;20034;-64
2021/05/20 06:03:07;;;;;;;35.47;17.52;;;;;;;;;;5060836;23;20048;-64
2021/05/20 06:05:33;;;;;;;33.80;15.68;;;;;;;;;;5054933;28;20104;-61
2021/05/20 06:07:59;;;;;;;33.97;16.30;;;;;;;;;;5054141;28;20502;-61
2021/05/20 06:10:25;;;;;;;28.95;16.45;;;;;;;;;;5051674;28;20091;-63
2021/05/20 06:12:51;;;;;;;31.02;15.95;;;;;;;;;;5048333;28;20458;-62
2021/05/20 06:15:17;;;;;;;27.48;14.45;;;;;;;;;;5042558;28;20021;-62
2021/05/20 06:17:43;;;;;;;36.90;15.82;;;;;;;;;;5053124;28;20500;-63
2021/05/20 06:20:09;;;;;;;28.40;15.90;;;;;;;;;;5051820;28;20021;-61
2021/05/20 06:22:36;;;;;;;28.55;16.73;;;;;;;;;;5053804;28;20017;-62
2021/05/20 06:25:02;;;;;;;30.10;17.48;;;;;;;;;;5052204;28;20374;-61
2021/05/20 06:27:28;;;;;;;28.40;14.80;;;;;;;;;;5049972;28;20056;-61
2021/05/20 06:29:54;;;;;;;48.80;16.67;;;;;;;;;;5033250;28;20527;-62
2021/05/20 06:32:21;;;;;;;27.77;15.10;;;;;;;;;;5032267;28;20113;-62
2021/05/20 06:34:47;;;;;;;30.42;16.70;;;;;;;;;;5033535;28;20121;-63
2021/05/20 06:37:13;;;;;;;30.85;16.27;;;;;;;;;;5033630;28;20448;-62
2021/05/20 06:39:40;;;;;;;29.25;14.85;;;;;;;;;;5032737;28;20450;-62
2021/05/20 06:42:08;;;;;;;27.92;16.02;;;;;;;;;;5033342;28;20029;-62
2021/05/20 06:44:35;;;;;;;31.27;15.32;;;;;;;;;;5035041;28;20043;-62
2021/05/20 06:47:01;;;;;;;37.65;16.27;;;;;;;;;;5053704;28;20040;-58
2021/05/20 06:49:26;;;;;;;31.52;18.75;;;13.60;99.90;;;;;;5052626;28;20060;-61
2021/05/20 06:51:52;;;;;;;29.15;16.38;;;;;;;;;;5053123;28;20645;-63
2021/05/20 06:54:18;;;;;;;48.58;16.67;;;;;;;;;;5052006;28;20025;-61
2021/05/20 06:56:51;;;;;;;34.60;17.45;;;;;;;;;;5052124;28;20116;-63
2021/05/20 07:02:01;;;;;;;32.10;17.73;;;;;;;;;;5052756;28;20035;-60
2021/05/20 07:04:28;;;;;;;29.85;16.20;;;;;;;;;;5051710;28;20065;-62
2021/05/20 07:06:54;;;;;;;27.98;16.00;;;;;;;;;;5053231;28;20013;-62
2021/05/20 07:09:20;;;;;;;28.27;17.25;;;;;;;;;;5052583;28;20048;-62
2021/05/20 07:11:46;;;;;;;33.33;17.25;;;;;;;;;;5052854;28;20017;-62
2021/05/20 07:14:12;;;;;;;29.73;17.90;;;;;;;;;;5051811;28;20029;-62
2021/05/20 07:16:38;;;;;;;34.67;18.67;;;;;;;;;;5052884;28;20494;-62
2021/05/20 07:19:04;;;;;;;29.52;18.10;;;;;;;;;;5051967;28;20029;-62
2021/05/20 07:21:30;;;;;;;31.45;18.25;;;;;;;;;;5052577;28;20051;-60
2021/05/20 07:23:56;;;;;;;31.77;17.40;;;;;;;;;;5052722;28;20451;-60
2021/05/20 07:26:22;;;;;;;32.45;18.83;;;;;;;;;;5052705;28;20075;-59
2021/05/20 07:28:48;;;;;;;31.83;18.92;;;;;;;;;;5050553;28;20024;-58
2021/05/20 07:31:14;;;;;;;30.23;18.60;;;;;;;;;;5052541;28;20470;-61
2021/05/20 07:33:40;;;;;;;29.88;17.33;;;;;;;;;;5050850;28;20020;-59
2021/05/20 07:36:06;;;;;;;30.75;18.65;;;;;;;;;;5049519;28;20024;-60
2021/05/20 07:38:33;;;;;;;34.40;20.15;;;;;;;;;;5051631;28;20025;-60
2021/05/20 07:40:59;;;;;;;32.33;19.20;;;;;;;;;;5051815;28;20427;-55
2021/05/20 07:43:25;;;;;;;31.98;18.55;;;;;;;;;;5050757;28;20025;-59
2021/05/20 07:45:51;;;;;;;32.85;19.23;;;;;;;;;;5050949;28;20111;-54
2021/05/20 07:48:18;;;;;;;31.33;18.77;;;;;;;;;;5052463;28;20021;-60
2021/05/20 07:50:44;;;;;;;30.92;18.58;;;;;;;;;;5051771;28;20473;-58
2021/05/20 07:53:11;;;;;;;35.85;20.58;;;;;;;;;;5050784;28;20500;-57
2021/05/20 07:55:37;;;;;;;33.25;19.83;;;;;;;;;;5050811;28;20031;-57
2021/05/20 07:58:05;;;;;;;35.20;21.33;;;;;;;;;;5052217;28;20481;-56
2021/05/20 08:00:31;;;;;;;30.92;18.55;;;;;;;;;;5050228;28;20053;-60
2021/05/20 08:03:07;;;;;;;33.10;20.02;;;;;;;;;;5051742;28;20105;-58
2021/05/20 08:05:40;;;;;;;35.00;20.58;;;;;;;;;;5050660;28;20063;-56
2021/05/20 08:10:57;;;;;;;31.23;18.58;;;;;;;;;;5051739;28;20040;-58
2021/05/20 08:13:23;;;;;;;34.65;19.35;;;;;;;;;;5051836;28;20112;-61
2021/05/20 08:15:49;;;;;;;36.17;23.17;;;;;;;;;;5052071;28;20052;-61
2021/05/20 08:18:16;;;;;;;34.92;21.23;;;;;;;;;;5052063;28;20056;-61
2021/05/20 08:20:42;;;;;;;34.85;20.77;;;;;;;;;;5052271;28;20162;-57
2021/05/20 08:23:08;;;;;;;33.95;21.17;;;;;;;;;;5050812;28;20025;-59
2021/05/20 08:25:35;;;;;;;39.15;22.23;;;;;;;;;;5051959;28;20044;-59
2021/05/20 08:28:01;;;;;;;39.15;23.83;;;;;;;;;;5051832;28;20021;-58
2021/05/20 08:30:27;;;;;;;38.53;20.20;;;;;;;;;;5051290;28;20044;-56
2021/05/20 08:32:53;;;;;;;40.92;21.85;;;;;;;;;;5050564;28;20120;-59
2021/05/20 08:35:19;;;;;;;35.08;19.05;;;;;;;;;;5051636;28;20066;-56
2021/05/20 08:37:45;;;;;;;39.60;24.38;;;;;;;;;;5050389;28;20026;-58
2021/05/20 08:40:13;;;;;;;45.45;26.48;;;;;;;;;;5049753;28;20540;-59
2021/05/20 08:42:39;;;;;;;49.92;28.90;;;;;;;;;;5050154;28;20029;-62
2021/05/20 08:45:19;;;;;;;48.03;26.05;;;;;;;;;;5050369;28;20063;-59
2021/05/20 08:47:47;;;;;;;52.65;28.13;;;;;;;;;;5051826;28;20023;-60
2021/05/20 08:50:13;;;;;;;47.47;27.88;;;;;;;;;;5051367;28;20021;-58
2021/05/20 08:52:40;;;;;;;43.13;24.85;;;;;;;;;;5051986;28;20025;-60
2021/05/20 08:55:07;;;;;;;48.95;26.08;;;;;;;;;;5051878;28;20038;-57
2021/05/20 08:57:33;;;;;;;43.67;25.40;;;;;;;;;;5050606;28;20064;-59
2021/05/20 09:00:02;;;;;;;41.65;25.38;;;;;;;;;;5049898;28;20033;-58
2021/05/20 09:02:29;;;;;;;45.10;27.33;;;;;;;;;;5050848;28;20033;-59
2021/05/20 09:05:08;;;;;;;44.05;26.27;;;;;;;;;;5051459;28;20025;-59
2021/05/20 09:07:36;;;;;;;45.95;26.45;;;;;;;;;;5051590;28;20504;-62
2021/05/20 09:10:12;;;;;;;41.22;26.75;;;;;;;;;;5050833;28;20029;-61
2021/05/20 09:12:39;;;;;;;43.55;27.13;;;;;;;;;;5050863;28;20052;-59
2021/05/20 09:15:12;;;;;;;38.25;22.58;;;;;;;;;;5051020;28;20029;-55
2021/05/20 09:17:38;;;;;;;38.75;23.98;;;;;;;;;;5051298;28;20473;-60
2021/05/20 09:20:04;;;;;;;40.85;25.35;;;;;;;;;;5050862;28;20481;-61
2021/05/20 09:22:31;;;;;;;39.80;22.23;;;;;;;;;;5051117;28;20025;-61
2021/05/20 09:24:58;;;;;;;39.85;24.55;;;;;;;;;;5049787;28;20115;-54
2021/05/20 09:27:35;;;;;;;38.10;23.55;;;;;;;;;;5052363;28;20025;-59
2021/05/20 09:30:12;;;;;;;37.45;22.52;;;;;;;;;;5052882;28;20528;-56
2021/05/20 09:32:39;;;;;;;36.20;22.85;;;;;;;;;;5054660;28;20504;-60
2021/05/20 09:35:06;;;;;;;34.30;21.58;;;;;;;;;;5053379;28;20020;-61
2021/05/20 09:37:35;;;;;;;32.15;19.52;;;;;;;;;;5054672;28;20389;-59
2021/05/20 09:40:01;;;;;;;36.15;21.42;;;;;;;;;;5053304;28;20481;-59
2021/05/20 09:42:31;;;;;;;32.92;20.52;;;;;;;;;;5052776;28;20079;-58
2021/05/20 09:45:10;;;;;;;36.72;21.58;;;;;;;;;;5054229;28;20132;-60
2021/05/20 09:47:36;;;;;;;38.15;23.67;;;;;;;;;;5053960;28;20040;-61
2021/05/20 09:50:05;;;;;;;35.25;21.08;;;;;;;;;;5053866;28;20047;-61
2021/05/20 09:52:31;;;;;;;38.05;21.48;;;;;;;;;;5053442;28;20032;-59
2021/05/20 09:54:57;;;;;;;34.63;20.65;;;;;;;;;;5054794;28;20029;-53
2021/05/20 09:57:34;;;;;;;35.30;20.50;;;;;;;;;;5054804;28;20041;-60
2021/05/20 10:00:14;;;;;;;37.00;22.10;;;;;;;;;;5054288;28;20158;-58
2021/05/20 10:02:40;;;;;;;35.83;18.65;;;;;;;;;;5054269;28;20033;-61
2021/05/20 10:05:27;;;;;;;26.33;14.15;;;;;;;;;;5053220;28;20039;-61
2021/05/20 10:07:53;;;;;;;28.70;14.85;;;;;;;;;;5054075;28;20411;-61
2021/05/20 10:10:20;;;;;;;28.23;16.38;;;;;;;;;;5052068;28;20029;-62
2021/05/20 10:12:46;;;;;;;26.45;14.20;;;;;;;;;;5054248;28;20040;-61
2021/05/20 10:15:17;;;;;;;25.67;14.43;;;;;;;;;;5054395;28;20033;-61
2021/05/20 10:17:44;;;;;;;28.38;14.98;;;;;;;;;;5054437;28;20061;-59
2021/05/20 10:20:11;;;;;;;28.85;15.10;;;;;;;;;;5052402;28;20025;-59
2021/05/20 10:22:37;;;;;;;27.17;14.18;;;;;;;;;;5051893;28;20032;-63
2021/05/20 10:25:04;;;;;;;28.90;14.55;;;;;;;;;;5050597;28;20045;-62
2021/05/20 10:27:31;;;;;;;28.25;15.65;;;;;;;;;;5052845;28;20024;-59
2021/05/20 10:29:59;;;;;;;32.92;17.13;;;;;;;;;;5053276;28;20021;-62
2021/05/20 10:32:25;;;;;;;35.20;18.38;;;;;;;;;;5053820;28;20045;-60
2021/05/20 10:35:01;;;;;;;34.10;18.58;;;;;;;;;;5054227;28;20465;-60
2021/05/20 10:37:36;;;;;;;41.42;21.73;;;;;;;;;;5052420;28;20346;-62
2021/05/20 10:40:04;;;;;;;43.08;22.25;;;;;;;;;;5051799;28;20024;-60
2021/05/20 10:42:47;;;;;;;43.47;21.30;;;;;;;;;;5053519;28;20021;-60
2021/05/20 10:45:18;;;;;;;40.17;21.02;;;;;;;;;;5051812;28;20048;-58
2021/05/20 10:48:03;;;;;;;42.42;21.70;;;;;;;;;;5053475;28;20183;-60
2021/05/20 10:50:49;;;;;;;43.67;23.17;;;;;;;;;;5051710;28;20246;-61
2021/05/20 10:53:34;;;;;;;41.20;24.55;;;;;;;;;;5049550;28;20037;-63
2021/05/20 10:56:00;;;;;;;43.97;23.48;;;;;;;;;;5054040;28;20028;-58
2021/05/20 10:58:30;;;;;;;41.08;21.27;;;;;;;;;;5053339;28;20038;-62
2021/05/20 11:00:56;;;;;;;29.50;16.45;;;;;;;;;;5052700;28;20029;-61
2021/05/20 11:03:42;;;;;;;31.88;17.35;;;;;;;;;;5053102;28;20028;-57
2021/05/20 11:06:08;;;;;;;32.95;16.38;;;;;;;;;;5053211;28;20078;-63
2021/05/20 11:08:37;;;;;;;31.95;17.33;;;;;;;;;;5051857;28;20017;-63
2021/05/20 11:11:03;;;;;;;32.38;19.00;;;;;;;;;;5052820;28;20029;-60
2021/05/20 11:13:36;;;;;;;30.77;17.38;;;;;;;;;;5052897;28;20458;-61
2021/05/20 11:16:15;;;;;;;32.63;17.38;;;;;;;;;;5052182;28;20029;-59
2021/05/20 11:18:41;;;;;;;37.03;20.17;;;;;;;;;;5053095;28;20032;-57
2021/05/20 11:21:08;;;;;;;36.38;22.88;;;;;;;;;;5053573;28;20082;-61
2021/05/20 11:23:35;;;;;;;36.50;20.10;;;;;;;;;;5051832;28;20501;-56
2021/05/20 11:26:01;;;;;;;37.67;22.23;;;;;;;;;;5053171;28;20025;-60
2021/05/20 11:28:27;;;;;;;42.58;27.05;;;;;;;;;;5052075;28;20469;-62
2021/05/20 11:30:57;;;;;;;43.15;24.58;;;;;;;;;;5052462;28;20021;-57
2021/05/20 11:33:25;;;;;;;40.17;25.42;;;;;;;;;;5047198;28;20563;-60
2021/05/20 11:38:30;;;;;;;40.75;23.80;;;;;;;;;;5041727;28;20025;-61
2021/05/20 11:40:56;;;;;;;42.65;24.45;;;;;;;;;;5046104;28;20036;-62
2021/05/20 11:43:29;;;;;;;34.85;20.50;;;;;;;;;;5052214;28;20490;-61
2021/05/20 11:45:56;;;;;;;35.72;22.67;;;10.10;99.90;;;;;;5052067;28;20365;-60
2021/05/20 11:48:22;;;;;;;37.20;22.73;;;;;;;;;;4698604;28;10000429;-61
2021/05/20 11:50:51;;;;;;;42.15;24.40;;;;;;;;;;5046536;28;20501;-63
2021/05/20 11:53:17;;;;;;;40.55;25.30;;;;;;;;;;5039182;28;20021;-60
2021/05/20 11:55:46;;;;;;;35.95;22.58;;;17.00;99.90;;;;;;5037452;28;20566;-61
2021/05/20 11:58:12;;;;;;;28.02;17.60;;;18.60;99.90;;;;;;5037997;28;20478;-62
2021/05/20 12:00:38;;;;;;;29.13;18.65;;;;;;;;;;5037256;28;20034;-63
2021/05/20 12:05:42;;;;;;;32.22;20.02;;;;;;;;;;5018610;28;20706;-58
2021/05/20 12:08:21;;;;;;;35.33;22.98;;;;;;;;;;4992038;28;20029;-59
2021/05/20 12:10:53;;;;;;;30.35;20.13;;;;;;;;;;5008784;28;20028;-58
2021/05/20 12:13:19;;;;;;;27.92;19.20;;;18.80;99.90;;;;;;5026070;28;20548;-58
2021/05/20 12:15:48;;;;;;;31.40;21.65;;;21.50;99.90;;;;;;5010600;28;20029;-62
2021/05/20 12:18:14;;;;;;;27.90;20.65;;;20.30;99.90;;;;;;5010575;28;20075;-61
2021/05/20 12:20:45;;;;;;;29.08;19.98;;;20.40;99.90;;;;;;5009737;28;20029;-59
2021/05/20 12:23:11;;;;;;;26.77;19.35;;;19.80;99.90;;;;;;5010163;28;20069;-59
2021/05/20 12:25:37;;;;;;;27.40;19.55;;;19.60;99.90;;;;;;5010456;28;20486;-60
2021/05/20 12:28:03;;;;;;;29.52;21.30;;;;;;;;;;5010413;28;20025;-61
2021/05/20 12:30:39;;;;;;;31.40;22.42;;;;;;;;;;5027085;28;20033;-60
2021/05/20 12:33:06;;;;;;;26.65;19.40;;;;;;;;;;5010381;28;20485;-61
2021/05/20 12:35:32;;;;;;;28.85;21.70;;;;;;;;;;5027528;28;20501;-59
2021/05/20 12:37:59;;;;;;;30.33;21.52;;;;;;;;;;5027899;28;20064;-60
2021/05/20 12:40:25;;;;;;;27.90;20.10;;;;;;;;;;5027191;28;20029;-61
2021/05/20 12:42:52;;;;;;;28.42;21.08;;;;;;;;;;5027449;28;20031;-60
2021/05/20 12:45:26;;;;;;;26.52;20.25;;;;;;;;;;5027914;28;20516;-60
2021/05/20 12:47:53;;;;;;;24.55;18.35;;;;;;;;;;5027280;28;20075;-59
2021/05/20 12:50:30;;;;;;;24.75;17.75;;;;;;;;;;5008856;28;20025;-60
2021/05/20 12:52:58;;;;;;;25.92;17.15;;;;;;;;;;5027100;28;20542;-59
2021/05/20 12:55:30;;;;;;;23.80;17.65;;;;;;;;;;5026843;28;20022;-61
2021/05/20 12:57:59;;;;;;;27.85;20.20;;;;;;;;;;5006824;28;20021;-61
2021/05/20 13:00:25;;;;;;;25.67;19.00;;;;;;;;;;5026771;28;20014;-61
2021/05/20 13:03:01;;;;;;;25.02;19.00;;;;;;;;;;5031413;28;20378;-61
2021/05/20 13:05:28;;;;;;;29.65;18.65;;;;;;;;;;5030542;28;20045;-62
2021/05/20 13:07:55;;;;;;;26.25;18.25;;;;;;;;;;5012315;28;20512;-61
2021/05/20 13:10:31;;;;;;;23.60;17.73;;;;;;;;;;5029839;28;20033;-61
2021/05/20 13:12:57;;;;;;;23.70;17.00;;;;;;;;;;5011510;28;20080;-60
2021/05/20 13:15:23;;;;;;;23.92;17.13;;;;;;;;;;5031097;28;20033;-59
2021/05/20 13:18:14;;;;;;;21.73;16.75;;;;;;;;;;5030933;28;20028;-62
2021/05/20 13:23:02;;;;;;;20.50;14.32;;;;;;;;;;5031192;28;20112;-56
2021/05/20 13:25:28;;;;;;;25.20;16.65;;;;;;;;;;5010413;28;20030;-60
2021/05/20 13:27:54;;;;;;;21.48;16.10;;;;;;;;;;5011931;28;20096;-58
2021/05/20 13:30:25;;;;;;;20.42;14.65;;;;;;;;;;5028695;28;20481;-59
2021/05/20 13:32:53;;;;;;;20.42;14.70;;;;;;;;;;5031836;28;20049;-59
2021/05/20 13:35:19;;;;;;;;;;;;;;;;;;5031409;28;20599;-59
2021/05/20 13:37:45;;;;;;;21.48;14.85;;;;;;;;;;5030210;28;19909;-60
2021/05/20 13:40:16;;;;;;;20.52;14.63;;;;;;;;;;5030636;28;20022;-58
2021/05/20 13:42:42;;;;;;;19.83;14.57;;;;;;;;;;5031165;28;20792;-59
2021/05/20 13:45:08;;;;;;;20.45;15.00;;;20.20;99.90;;;;;;5013281;28;20022;-58
2021/05/20 13:47:34;;;;;;;21.60;14.75;;;;;;;;;;5030530;28;20095;-59
2021/05/20 13:50:00;;;;;;;21.08;14.50;;;;;;;;;;5012217;28;20029;-59
2021/05/20 13:52:28;;;;;;;22.92;14.52;;;;;;;;;;5030715;28;20412;-58
2021/05/20 13:54:55;;;;;;;19.70;14.32;;;;;;;;;;5030667;28;20022;-59
2021/05/20 13:57:21;;;;;;;19.10;13.38;;;;;;;;;;5012243;28;20076;-58
2021/05/20 13:59:47;;;;;;;20.88;14.40;;;;;;;;;;5029633;28;20029;-56
2021/05/20 14:02:16;;;;;;;18.85;12.63;;;;;;;;;;5030720;28;20029;-59
2021/05/20 14:04:43;;;;;;;18.92;13.05;;;;;;;;;;5029528;28;20091;-58
2021/05/20 14:07:10;;;;;;;19.48;13.15;;;;;;;;;;5032839;28;20040;-59
2021/05/20 14:09:36;;;;;;;20.75;13.45;;;;;;;;;;5032639;28;20433;-59
2021/05/20 14:12:03;;;;;;;19.45;13.55;;;;;;;;;;5033003;28;20014;-59
2021/05/20 14:14:30;;;;;;;18.08;12.80;;;;;;;;;;5033500;28;20478;-59
2021/05/20 14:16:56;;;;;;;18.85;12.48;;;;;;;;;;5015958;28;20032;-57
2021/05/20 14:19:23;;;;;;;19.02;12.90;;;20.40;99.00;;;;;;5014595;28;20374;-59
2021/05/20 14:21:49;;;;;;;18.05;11.65;;;;;;;;;;5016119;28;20048;-59
2021/05/20 14:24:16;;;;;;;18.45;13.55;;;;;;;;;;5033827;28;20028;-57
2021/05/20 14:26:43;;;;;;;17.80;12.38;;;;;;;;;;5034162;28;20022;-57
2021/05/20 14:29:09;;;;;;;19.65;12.32;;;;;;;;;;5011668;28;20099;-59